sensor_id;sensor_type;location;lat;lon;timestamp;temperature;humidity
11944;DHT22;6031;50.220;10.122;2023-02-25T00:00:15;3.20;1.00
11944;DHT22;6031;50.220;10.122;2023-02-25T00:02:47;3.10;1.00
11944;DHT22;6031;50.220;10.122;2023-02-25T00:05:14;3.10;1.00
11944;DHT22;6031;50.220;10.122;2023-02-25T00:07:40;3.20;1.00
11944;DHT22;6031;50.220;10.122;2023-02-25T00:10:07;3.20;1.00
11944;DHT22;6031;50.220;10.122;2023-02-25T00:12:33;3.30;1.00
11944;DHT22;6031;50.220;10.122;2023-02-25T00:14:59;3.30;1.00
11944;DHT22;6031;50.220;10.122;2023-02-25T00:17:25;3.30;1.00
11944;DHT22;6031;50.220;10.122;2023-02-25T00:19:50;3.40;1.00
11944;DHT22;6031;50.220;10.122;2023-02-25T00:22:16;3.40;1.00
11944;DHT22;6031;50.220;10.122;2023-02-25T00:24:42;3.40;1.00
11944;DHT22;6031;50.220;10.122;2023-02-25T00:27:07;3.30;99.90
11944;DHT22;6031;50.220;10.122;2023-02-25T00:29:33;3.30;1.00
11944;DHT22;6031;50.220;10.122;2023-02-25T00:31:59;3.20;99.90
11944;DHT22;6031;50.220;10.122;2023-02-25T00:34:24;3.20;99.90
11944;DHT22;6031;50.220;10.122;2023-02-25T00:36:50;3.20;1.00
11944;DHT22;6031;50.220;10.122;2023-02-25T00:39:16;3.20;1.00
11944;DHT22;6031;50.220;10.122;2023-02-25T00:41:41;3.20;1.00
11944;DHT22;6031;50.220;10.122;2023-02-25T00:44:07;3.20;99.90
11944;DHT22;6031;50.220;10.122;2023-02-25T00:46:33;3.10;99.90
11944;DHT22;6031;50.220;10.122;2023-02-25T00:49:00;3.00;99.90
11944;DHT22;6031;50.220;10.122;2023-02-25T00:51:28;2.90;99.90
11944;DHT22;6031;50.220;10.122;2023-02-25T00:53:55;2.80;1.00
11944;DHT22;6031;50.220;10.122;2023-02-25T00:56:21;2.80;99.90
11944;DHT22;6031;50.220;10.122;2023-02-25T00:58:49;2.80;99.90
11944;DHT22;6031;50.220;10.122;2023-02-25T01:01:29;2.90;99.90
11944;DHT22;6031;50.220;10.122;2023-02-25T01:03:57;2.90;99.90
11944;DHT22;6031;50.220;10.122;2023-02-25T01:06:24;2.90;1.00
11944;DHT22;6031;50.220;10.122;2023-02-25T01:08:50;2.90;99.90
11944;DHT22;6031;50.220;10.122;2023-02-25T01:11:19;2.90;99.90
11944;DHT22;6031;50.220;10.122;2023-02-25T01:13:52;2.90;99.90
11944;DHT22;6031;50.220;10.122;2023-02-25T01:16:22;2.90;1.00
11944;DHT22;6031;50.220;10.122;2023-02-25T01:18:54;3.00;99.90
11944;DHT22;6031;50.220;10.122;2023-02-25T01:21:26;3.00;97.30
11944;DHT22;6031;50.220;10.122;2023-02-25T01:24:01;3.00;1.00
11944;DHT22;6031;50.220;10.122;2023-02-25T01:26:28;3.00;31.80
11944;DHT22;6031;50.220;10.122;2023-02-25T01:28:54;3.00;99.90
11944;DHT22;6031;50.220;10.122;2023-02-25T01:31:21;3.00;99.90
11944;DHT22;6031;50.220;10.122;2023-02-25T01:33:50;3.10;99.90
11944;DHT22;6031;50.220;10.122;2023-02-25T01:36:16;3.10;99.90
11944;DHT22;6031;50.220;10.122;2023-02-25T01:38:41;3.10;1.00
11944;DHT22;6031;50.220;10.122;2023-02-25T01:41:07;3.10;28.60
11944;DHT22;6031;50.220;10.122;2023-02-25T01:43:33;3.10;99.90
11944;DHT22;6031;50.220;10.122;2023-02-25T01:45:59;3.10;1.00
11944;DHT22;6031;50.220;10.122;2023-02-25T01:48:27;3.20;1.00
11944;DHT22;6031;50.220;10.122;2023-02-25T01:51:01;3.10;1.00
11944;DHT22;6031;50.220;10.122;2023-02-25T01:53:33;3.20;1.00
11944;DHT22;6031;50.220;10.122;2023-02-25T01:56:00;3.20;1.00
11944;DHT22;6031;50.220;10.122;2023-02-25T01:58:27;3.20;1.00
11944;DHT22;6031;50.220;10.122;2023-02-25T02:00:53;3.20;1.00
11944;DHT22;6031;50.220;10.122;2023-02-25T02:03:21;3.20;12.30
11944;DHT22;6031;50.220;10.122;2023-02-25T02:08:19;3.20;99.90
11944;DHT22;6031;50.220;10.122;2023-02-25T02:10:45;3.20;4.30
11944;DHT22;6031;50.220;10.122;2023-02-25T02:13:10;3.10;99.90
11944;DHT22;6031;50.220;10.122;2023-02-25T02:15:39;3.20;1.00
11944;DHT22;6031;50.220;10.122;2023-02-25T02:18:09;3.10;1.00
11944;DHT22;6031;50.220;10.122;2023-02-25T02:26:43;2.90;99.90
11944;DHT22;6031;50.220;10.122;2023-02-25T02:29:30;2.80;1.00
11944;DHT22;6031;50.220;10.122;2023-02-25T02:32:34;2.80;99.90
11944;DHT22;6031;50.220;10.122;2023-02-25T02:35:22;2.80;99.90
11944;DHT22;6031;50.220;10.122;2023-02-25T02:43:22;2.90;99.90
11944;DHT22;6031;50.220;10.122;2023-02-25T02:46:01;3.00;1.00
11944;DHT22;6031;50.220;10.122;2023-02-25T02:48:35;2.90;1.00
11944;DHT22;6031;50.220;10.122;2023-02-25T02:51:11;2.90;1.00
11944;DHT22;6031;50.220;10.122;2023-02-25T02:53:54;3.00;1.00
11944;DHT22;6031;50.220;10.122;2023-02-25T02:56:23;3.00;1.00
11944;DHT22;6031;50.220;10.122;2023-02-25T02:58:57;2.90;1.00
11944;DHT22;6031;50.220;10.122;2023-02-25T03:01:33;3.00;27.50
11944;DHT22;6031;50.220;10.122;2023-02-25T03:04:05;3.00;1.00
11944;DHT22;6031;50.220;10.122;2023-02-25T03:06:35;3.00;1.00
11944;DHT22;6031;50.220;10.122;2023-02-25T03:09:07;3.00;1.00
11944;DHT22;6031;50.220;10.122;2023-02-25T03:11:34;3.00;1.00
11944;DHT22;6031;50.220;10.122;2023-02-25T03:14:00;3.10;43.60
11944;DHT22;6031;50.220;10.122;2023-02-25T03:16:34;3.10;99.90
11944;DHT22;6031;50.220;10.122;2023-02-25T03:19:17;3.10;1.00
11944;DHT22;6031;50.220;10.122;2023-02-25T03:21:49;3.20;99.90
11944;DHT22;6031;50.220;10.122;2023-02-25T03:24:19;3.10;99.90
11944;DHT22;6031;50.220;10.122;2023-02-25T03:26:50;3.20;95.10
11944;DHT22;6031;50.220;10.122;2023-02-25T03:29:20;3.20;1.00
11944;DHT22;6031;50.220;10.122;2023-02-25T03:31:58;3.20;1.00
11944;DHT22;6031;50.220;10.122;2023-02-25T03:34:29;3.20;99.90
11944;DHT22;6031;50.220;10.122;2023-02-25T03:36:59;3.10;1.00
11944;DHT22;6031;50.220;10.122;2023-02-25T03:39:28;3.10;1.00
11944;DHT22;6031;50.220;10.122;2023-02-25T03:41:57;3.20;1.00
11944;DHT22;6031;50.220;10.122;2023-02-25T03:44:41;3.20;99.90
11944;DHT22;6031;50.220;10.122;2023-02-25T03:47:09;3.20;1.00
11944;DHT22;6031;50.220;10.122;2023-02-25T03:49:44;3.20;99.90
11944;DHT22;6031;50.220;10.122;2023-02-25T03:52:13;3.10;1.00
11944;DHT22;6031;50.220;10.122;2023-02-25T03:54:41;3.20;99.90
11944;DHT22;6031;50.220;10.122;2023-02-25T03:57:07;3.10;1.00
11944;DHT22;6031;50.220;10.122;2023-02-25T03:59:32;3.10;1.00
11944;DHT22;6031;50.220;10.122;2023-02-25T04:01:59;3.10;1.00
11944;DHT22;6031;50.220;10.122;2023-02-25T04:04:26;3.10;99.90
11944;DHT22;6031;50.220;10.122;2023-02-25T04:06:52;3.10;99.90
11944;DHT22;6031;50.220;10.122;2023-02-25T04:09:17;3.20;1.00
11944;DHT22;6031;50.220;10.122;2023-02-25T04:11:43;3.10;1.00
11944;DHT22;6031;50.220;10.122;2023-02-25T04:14:09;3.20;1.00
11944;DHT22;6031;50.220;10.122;2023-02-25T04:16:34;3.10;1.00
11944;DHT22;6031;50.220;10.122;2023-02-25T04:19:00;3.10;1.00
11944;DHT22;6031;50.220;10.122;2023-02-25T04:21:31;3.10;99.90
11944;DHT22;6031;50.220;10.122;2023-02-25T04:23:58;3.10;1.00
11944;DHT22;6031;50.220;10.122;2023-02-25T04:26:23;3.10;93.20
11944;DHT22;6031;50.220;10.122;2023-02-25T04:28:49;3.10;99.90
11944;DHT22;6031;50.220;10.122;2023-02-25T04:31:15;3.10;1.00
11944;DHT22;6031;50.220;10.122;2023-02-25T04:33:40;3.10;1.00
11944;DHT22;6031;50.220;10.122;2023-02-25T04:36:30;3.00;99.90
11944;DHT22;6031;50.220;10.122;2023-02-25T04:38:58;3.00;1.00
11944;DHT22;6031;50.220;10.122;2023-02-25T04:41:29;3.00;1.00
11944;DHT22;6031;50.220;10.122;2023-02-25T04:43:55;3.00;99.90
11944;DHT22;6031;50.220;10.122;2023-02-25T04:46:20;3.00;40.50
11944;DHT22;6031;50.220;10.122;2023-02-25T04:48:46;3.00;1.00
11944;DHT22;6031;50.220;10.122;2023-02-25T04:51:11;3.00;1.00
11944;DHT22;6031;50.220;10.122;2023-02-25T04:53:37;3.10;99.90
11944;DHT22;6031;50.220;10.122;2023-02-25T04:56:07;3.10;1.00
11944;DHT22;6031;50.220;10.122;2023-02-25T04:58:34;3.00;1.00
11944;DHT22;6031;50.220;10.122;2023-02-25T05:01:01;3.10;1.00
11944;DHT22;6031;50.220;10.122;2023-02-25T05:03:27;3.10;1.00
11944;DHT22;6031;50.220;10.122;2023-02-25T05:05:53;3.00;1.00
11944;DHT22;6031;50.220;10.122;2023-02-25T05:08:19;3.00;99.90
11944;DHT22;6031;50.220;10.122;2023-02-25T05:10:44;3.00;1.00
11944;DHT22;6031;50.220;10.122;2023-02-25T05:13:10;3.10;1.00
11944;DHT22;6031;50.220;10.122;2023-02-25T05:15:35;3.10;99.90
11944;DHT22;6031;50.220;10.122;2023-02-25T05:18:01;3.10;80.50
11944;DHT22;6031;50.220;10.122;2023-02-25T05:20:26;3.10;99.90
11944;DHT22;6031;50.220;10.122;2023-02-25T05:22:53;3.10;1.00
11944;DHT22;6031;50.220;10.122;2023-02-25T05:25:18;3.10;1.00
11944;DHT22;6031;50.220;10.122;2023-02-25T05:27:44;3.00;1.00
11944;DHT22;6031;50.220;10.122;2023-02-25T05:30:10;3.10;1.00
11944;DHT22;6031;50.220;10.122;2023-02-25T05:32:36;3.10;71.90
11944;DHT22;6031;50.220;10.122;2023-02-25T05:35:03;3.00;1.00
11944;DHT22;6031;50.220;10.122;2023-02-25T05:37:30;3.00;99.90
11944;DHT22;6031;50.220;10.122;2023-02-25T05:39:56;3.00;99.90
11944;DHT22;6031;50.220;10.122;2023-02-25T05:42:23;3.00;38.30
11944;DHT22;6031;50.220;10.122;2023-02-25T05:44:48;3.00;1.00
11944;DHT22;6031;50.220;10.122;2023-02-25T05:47:14;3.00;99.90
11944;DHT22;6031;50.220;10.122;2023-02-25T05:49:40;3.00;85.30
11944;DHT22;6031;50.220;10.122;2023-02-25T05:52:07;3.00;61.10
11944;DHT22;6031;50.220;10.122;2023-02-25T05:54:32;3.00;1.00
11944;DHT22;6031;50.220;10.122;2023-02-25T05:56:58;3.00;1.00
11944;DHT22;6031;50.220;10.122;2023-02-25T05:59:23;3.00;1.00
11944;DHT22;6031;50.220;10.122;2023-02-25T06:01:49;3.00;99.90
11944;DHT22;6031;50.220;10.122;2023-02-25T06:04:14;3.00;99.90
11944;DHT22;6031;50.220;10.122;2023-02-25T06:06:40;3.00;99.90
11944;DHT22;6031;50.220;10.122;2023-02-25T06:09:06;3.00;1.00
11944;DHT22;6031;50.220;10.122;2023-02-25T06:11:33;3.00;99.90
11944;DHT22;6031;50.220;10.122;2023-02-25T06:13:59;3.00;1.00
11944;DHT22;6031;50.220;10.122;2023-02-25T06:16:26;3.00;1.00
11944;DHT22;6031;50.220;10.122;2023-02-25T06:18:57;2.90;1.00
11944;DHT22;6031;50.220;10.122;2023-02-25T06:21:22;2.90;99.90
11944;DHT22;6031;50.220;10.122;2023-02-25T06:23:48;3.00;1.00
11944;DHT22;6031;50.220;10.122;2023-02-25T06:26:14;2.90;99.90
11944;DHT22;6031;50.220;10.122;2023-02-25T06:28:40;2.90;1.00
11944;DHT22;6031;50.220;10.122;2023-02-25T06:31:11;2.90;1.00
11944;DHT22;6031;50.220;10.122;2023-02-25T06:33:38;2.90;1.00
11944;DHT22;6031;50.220;10.122;2023-02-25T06:36:05;2.90;9.00
11944;DHT22;6031;50.220;10.122;2023-02-25T06:38:32;2.90;99.90
11944;DHT22;6031;50.220;10.122;2023-02-25T06:40:58;2.90;1.00
11944;DHT22;6031;50.220;10.122;2023-02-25T06:43:23;3.00;1.00
11944;DHT22;6031;50.220;10.122;2023-02-25T06:45:49;3.00;1.00
11944;DHT22;6031;50.220;10.122;2023-02-25T06:48:14;3.10;1.00
11944;DHT22;6031;50.220;10.122;2023-02-25T06:50:41;3.00;99.90
11944;DHT22;6031;50.220;10.122;2023-02-25T06:53:07;3.10;99.90
11944;DHT22;6031;50.220;10.122;2023-02-25T06:55:33;3.20;1.00
11944;DHT22;6031;50.220;10.122;2023-02-25T06:57:58;3.20;1.00
11944;DHT22;6031;50.220;10.122;2023-02-25T07:00:24;3.10;99.90
11944;DHT22;6031;50.220;10.122;2023-02-25T07:02:50;3.10;99.90
11944;DHT22;6031;50.220;10.122;2023-02-25T07:05:15;3.10;99.90
11944;DHT22;6031;50.220;10.122;2023-02-25T07:07:41;3.10;1.00
11944;DHT22;6031;50.220;10.122;2023-02-25T07:10:07;3.20;99.90
11944;DHT22;6031;50.220;10.122;2023-02-25T07:12:32;3.20;99.90
11944;DHT22;6031;50.220;10.122;2023-02-25T07:14:58;3.20;1.00
11944;DHT22;6031;50.220;10.122;2023-02-25T07:17:24;3.20;1.00
11944;DHT22;6031;50.220;10.122;2023-02-25T07:19:49;3.30;1.00
11944;DHT22;6031;50.220;10.122;2023-02-25T07:22:16;3.30;29.20
11944;DHT22;6031;50.220;10.122;2023-02-25T07:24:42;3.40;99.90
11944;DHT22;6031;50.220;10.122;2023-02-25T07:27:08;3.40;99.90
11944;DHT22;6031;50.220;10.122;2023-02-25T07:29:34;3.50;1.00
11944;DHT22;6031;50.220;10.122;2023-02-25T07:31:59;3.60;1.60
11944;DHT22;6031;50.220;10.122;2023-02-25T07:34:25;3.80;1.00
11944;DHT22;6031;50.220;10.122;2023-02-25T07:36:51;4.00;57.90
11944;DHT22;6031;50.220;10.122;2023-02-25T07:39:17;4.20;99.90
11944;DHT22;6031;50.220;10.122;2023-02-25T07:41:43;4.30;99.90
11944;DHT22;6031;50.220;10.122;2023-02-25T07:44:08;4.30;6.50
11944;DHT22;6031;50.220;10.122;2023-02-25T07:46:35;4.30;99.90
11944;DHT22;6031;50.220;10.122;2023-02-25T07:49:01;4.40;97.20
11944;DHT22;6031;50.220;10.122;2023-02-25T07:51:26;4.30;1.00
11944;DHT22;6031;50.220;10.122;2023-02-25T07:53:54;4.30;1.00
11944;DHT22;6031;50.220;10.122;2023-02-25T07:56:21;4.40;99.90
11944;DHT22;6031;50.220;10.122;2023-02-25T07:58:47;4.40;1.00
11944;DHT22;6031;50.220;10.122;2023-02-25T08:01:24;4.60;99.90
11944;DHT22;6031;50.220;10.122;2023-02-25T08:03:51;4.60;1.00
11944;DHT22;6031;50.220;10.122;2023-02-25T08:06:17;4.50;99.90
11944;DHT22;6031;50.220;10.122;2023-02-25T08:08:43;4.60;1.00
11944;DHT22;6031;50.220;10.122;2023-02-25T08:11:11;4.50;99.90
11944;DHT22;6031;50.220;10.122;2023-02-25T08:13:37;4.40;99.90
11944;DHT22;6031;50.220;10.122;2023-02-25T08:16:04;4.40;1.00
11944;DHT22;6031;50.220;10.122;2023-02-25T08:18:30;4.40;99.90
11944;DHT22;6031;50.220;10.122;2023-02-25T08:20:55;4.50;99.90
11944;DHT22;6031;50.220;10.122;2023-02-25T08:23:23;4.50;1.00
11944;DHT22;6031;50.220;10.122;2023-02-25T08:25:54;4.50;1.00
11944;DHT22;6031;50.220;10.122;2023-02-25T08:31:51;4.50;1.00
11944;DHT22;6031;50.220;10.122;2023-02-25T08:34:17;4.60;99.90
11944;DHT22;6031;50.220;10.122;2023-02-25T08:36:43;4.50;1.00
11944;DHT22;6031;50.220;10.122;2023-02-25T08:39:09;4.50;91.20
11944;DHT22;6031;50.220;10.122;2023-02-25T08:41:46;4.40;16.40
11944;DHT22;6031;50.220;10.122;2023-02-25T08:44:12;4.50;99.90
11944;DHT22;6031;50.220;10.122;2023-02-25T08:46:38;4.50;1.00
11944;DHT22;6031;50.220;10.122;2023-02-25T08:49:04;4.50;1.00
11944;DHT22;6031;50.220;10.122;2023-02-25T08:51:31;4.50;99.90
11944;DHT22;6031;50.220;10.122;2023-02-25T08:54:02;4.40;99.90
11944;DHT22;6031;50.220;10.122;2023-02-25T08:56:28;4.50;1.00
11944;DHT22;6031;50.220;10.122;2023-02-25T08:58:54;4.70;1.00
11944;DHT22;6031;50.220;10.122;2023-02-25T09:01:19;4.80;1.00
11944;DHT22;6031;50.220;10.122;2023-02-25T09:03:47;5.10;1.00
11944;DHT22;6031;50.220;10.122;2023-02-25T09:06:24;5.30;1.00
11944;DHT22;6031;50.220;10.122;2023-02-25T09:08:52;5.30;1.00
11944;DHT22;6031;50.220;10.122;2023-02-25T09:11:20;5.00;1.00
11944;DHT22;6031;50.220;10.122;2023-02-25T09:13:45;5.10;99.90
11944;DHT22;6031;50.220;10.122;2023-02-25T09:16:11;5.10;1.00
11944;DHT22;6031;50.220;10.122;2023-02-25T09:18:42;5.00;99.90
11944;DHT22;6031;50.220;10.122;2023-02-25T09:21:08;4.90;99.90
11944;DHT22;6031;50.220;10.122;2023-02-25T09:23:35;4.80;1.00
11944;DHT22;6031;50.220;10.122;2023-02-25T09:26:04;4.80;1.00
11944;DHT22;6031;50.220;10.122;2023-02-25T09:28:31;4.90;1.00
11944;DHT22;6031;50.220;10.122;2023-02-25T09:30:57;4.80;1.00
11944;DHT22;6031;50.220;10.122;2023-02-25T09:33:23;4.70;99.90
11944;DHT22;6031;50.220;10.122;2023-02-25T09:35:49;4.80;1.00
11944;DHT22;6031;50.220;10.122;2023-02-25T09:38:15;4.70;1.00
11944;DHT22;6031;50.220;10.122;2023-02-25T09:40:45;4.60;99.90
11944;DHT22;6031;50.220;10.122;2023-02-25T09:43:29;4.60;1.00
11944;DHT22;6031;50.220;10.122;2023-02-25T09:46:05;5.00;1.00
11944;DHT22;6031;50.220;10.122;2023-02-25T09:48:34;6.30;99.90
11944;DHT22;6031;50.220;10.122;2023-02-25T09:51:18;6.70;99.90
11944;DHT22;6031;50.220;10.122;2023-02-25T09:53:51;6.20;99.90
11944;DHT22;6031;50.220;10.122;2023-02-25T09:56:17;5.30;1.00
11944;DHT22;6031;50.220;10.122;2023-02-25T09:58:49;4.70;1.00
11944;DHT22;6031;50.220;10.122;2023-02-25T10:01:33;4.60;1.00
11944;DHT22;6031;50.220;10.122;2023-02-25T10:04:12;4.60;1.00
11944;DHT22;6031;50.220;10.122;2023-02-25T10:06:45;5.00;99.90
11944;DHT22;6031;50.220;10.122;2023-02-25T10:09:49;5.10;29.10
11944;DHT22;6031;50.220;10.122;2023-02-25T10:12:34;5.20;1.00
11944;DHT22;6031;50.220;10.122;2023-02-25T10:15:35;5.40;1.00
11944;DHT22;6031;50.220;10.122;2023-02-25T10:21:22;6.40;99.90
11944;DHT22;6031;50.220;10.122;2023-02-25T10:26:45;7.40;1.00
11944;DHT22;6031;50.220;10.122;2023-02-25T10:29:21;7.50;1.00
11944;DHT22;6031;50.220;10.122;2023-02-25T10:31:48;7.60;99.90
11944;DHT22;6031;50.220;10.122;2023-02-25T10:34:22;8.20;99.90
11944;DHT22;6031;50.220;10.122;2023-02-25T10:36:56;7.80;1.00
11944;DHT22;6031;50.220;10.122;2023-02-25T10:39:23;7.50;1.00
11944;DHT22;6031;50.220;10.122;2023-02-25T10:41:49;6.80;1.00
11944;DHT22;6031;50.220;10.122;2023-02-25T10:44:15;6.50;1.00
11944;DHT22;6031;50.220;10.122;2023-02-25T10:46:54;6.00;1.00
11944;DHT22;6031;50.220;10.122;2023-02-25T10:49:24;6.00;99.90
11944;DHT22;6031;50.220;10.122;2023-02-25T10:52:16;6.30;1.00
11944;DHT22;6031;50.220;10.122;2023-02-25T10:54:50;6.20;1.00
11944;DHT22;6031;50.220;10.122;2023-02-25T10:57:21;5.40;99.90
11944;DHT22;6031;50.220;10.122;2023-02-25T11:00:03;4.70;99.90
11944;DHT22;6031;50.220;10.122;2023-02-25T11:02:38;4.60;99.90
11944;DHT22;6031;50.220;10.122;2023-02-25T11:05:05;4.80;99.90
11944;DHT22;6031;50.220;10.122;2023-02-25T11:10:14;5.20;1.00
11944;DHT22;6031;50.220;10.122;2023-02-25T11:12:45;5.10;1.00
11944;DHT22;6031;50.220;10.122;2023-02-25T11:20:53;5.30;1.00
11944;DHT22;6031;50.220;10.122;2023-02-25T11:23:24;5.20;1.00
11944;DHT22;6031;50.220;10.122;2023-02-25T11:25:51;5.00;1.00
11944;DHT22;6031;50.220;10.122;2023-02-25T11:28:30;5.00;99.90
11944;DHT22;6031;50.220;10.122;2023-02-25T11:31:05;5.00;1.00
11944;DHT22;6031;50.220;10.122;2023-02-25T11:33:34;5.30;1.00
11944;DHT22;6031;50.220;10.122;2023-02-25T11:36:02;5.90;99.90
11944;DHT22;6031;50.220;10.122;2023-02-25T11:40:58;7.30;1.00
11944;DHT22;6031;50.220;10.122;2023-02-25T11:43:38;8.40;40.50
11944;DHT22;6031;50.220;10.122;2023-02-25T11:46:07;8.70;1.00
11944;DHT22;6031;50.220;10.122;2023-02-25T11:48:59;7.40;60.10
11944;DHT22;6031;50.220;10.122;2023-02-25T11:51:54;7.20;99.90
11944;DHT22;6031;50.220;10.122;2023-02-25T11:54:45;6.40;1.00
11944;DHT22;6031;50.220;10.122;2023-02-25T11:57:39;5.30;99.90
11944;DHT22;6031;50.220;10.122;2023-02-25T12:00:16;5.40;99.90
11944;DHT22;6031;50.220;10.122;2023-02-25T12:14:01;3.70;1.00
11944;DHT22;6031;50.220;10.122;2023-02-25T12:16:37;3.60;1.00
11944;DHT22;6031;50.220;10.122;2023-02-25T12:19:24;3.50;18.10
11944;DHT22;6031;50.220;10.122;2023-02-25T12:33:17;15.00;1.00
11944;DHT22;6031;50.220;10.122;2023-02-25T12:36:09;15.50;1.00
11944;DHT22;6031;50.220;10.122;2023-02-25T12:44:53;17.00;1.00
11944;DHT22;6031;50.220;10.122;2023-02-25T13:06:22;17.90;1.00
11944;DHT22;6031;50.220;10.122;2023-02-25T13:09:12;17.00;1.00
11944;DHT22;6031;50.220;10.122;2023-02-25T13:14:32;16.10;1.00
11944;DHT22;6031;50.220;10.122;2023-02-25T13:23:02;11.20;1.00
11944;DHT22;6031;50.220;10.122;2023-02-25T13:34:07;10.00;1.00
11944;DHT22;6031;50.220;10.122;2023-02-25T13:36:43;5.70;1.00
11944;DHT22;6031;50.220;10.122;2023-02-25T14:06:12;6.80;99.90
11944;DHT22;6031;50.220;10.122;2023-02-25T14:09:08;8.90;1.00
11944;DHT22;6031;50.220;10.122;2023-02-25T14:12:03;9.60;99.90
11944;DHT22;6031;50.220;10.122;2023-02-25T14:20:09;8.30;27.60
11944;DHT22;6031;50.220;10.122;2023-02-25T14:22:59;7.40;99.90
11944;DHT22;6031;50.220;10.122;2023-02-25T14:28:59;6.10;99.90
11944;DHT22;6031;50.220;10.122;2023-02-25T14:37:06;5.50;99.90
11944;DHT22;6031;50.220;10.122;2023-02-25T14:39:49;5.60;99.90
11944;DHT22;6031;50.220;10.122;2023-02-25T14:42:45;5.80;99.90
11944;DHT22;6031;50.220;10.122;2023-02-25T14:45:25;5.80;99.90
11944;DHT22;6031;50.220;10.122;2023-02-25T14:50:44;5.20;64.60
11944;DHT22;6031;50.220;10.122;2023-02-25T14:56:17;5.10;99.90
11944;DHT22;6031;50.220;10.122;2023-02-25T15:20:58;5.30;99.90
11944;DHT22;6031;50.220;10.122;2023-02-25T15:23:49;5.00;99.90
11944;DHT22;6031;50.220;10.122;2023-02-25T15:26:38;4.90;99.90
11944;DHT22;6031;50.220;10.122;2023-02-25T15:29:18;4.60;99.90
11944;DHT22;6031;50.220;10.122;2023-02-25T15:34:35;4.70;99.90
11944;DHT22;6031;50.220;10.122;2023-02-25T15:37:17;4.90;99.90
11944;DHT22;6031;50.220;10.122;2023-02-25T15:42:10;4.70;99.90
11944;DHT22;6031;50.220;10.122;2023-02-25T15:44:37;4.80;99.90
11944;DHT22;6031;50.220;10.122;2023-02-25T15:49:45;4.70;9.50
11944;DHT22;6031;50.220;10.122;2023-02-25T15:52:11;4.50;9.90
11944;DHT22;6031;50.220;10.122;2023-02-25T16:02:31;3.80;99.90
11944;DHT22;6031;50.220;10.122;2023-02-25T16:07:43;3.50;1.00
11944;DHT22;6031;50.220;10.122;2023-02-25T16:12:42;3.60;1.00
11944;DHT22;6031;50.220;10.122;2023-02-25T16:15:25;3.60;99.90
11944;DHT22;6031;50.220;10.122;2023-02-25T16:17:53;3.50;99.90
11944;DHT22;6031;50.220;10.122;2023-02-25T16:20:24;3.60;99.90
11944;DHT22;6031;50.220;10.122;2023-02-25T16:22:55;3.60;99.90
11944;DHT22;6031;50.220;10.122;2023-02-25T16:25:41;3.70;99.90
11944;DHT22;6031;50.220;10.122;2023-02-25T16:30:53;3.40;1.00
11944;DHT22;6031;50.220;10.122;2023-02-25T16:33:38;3.30;1.00
11944;DHT22;6031;50.220;10.122;2023-02-25T16:36:15;3.30;1.00
11944;DHT22;6031;50.220;10.122;2023-02-25T16:38:54;3.30;1.00
11944;DHT22;6031;50.220;10.122;2023-02-25T16:41:21;3.20;99.90
11944;DHT22;6031;50.220;10.122;2023-02-25T16:43:47;3.00;1.00
11944;DHT22;6031;50.220;10.122;2023-02-25T16:46:21;2.80;41.40
11944;DHT22;6031;50.220;10.122;2023-02-25T16:48:58;2.80;1.00
11944;DHT22;6031;50.220;10.122;2023-02-25T16:51:31;2.80;1.00
11944;DHT22;6031;50.220;10.122;2023-02-25T16:54:21;2.70;1.00
11944;DHT22;6031;50.220;10.122;2023-02-25T16:56:53;2.80;1.00
11944;DHT22;6031;50.220;10.122;2023-02-25T16:59:21;2.70;1.00
11944;DHT22;6031;50.220;10.122;2023-02-25T17:01:57;2.70;1.00
11944;DHT22;6031;50.220;10.122;2023-02-25T17:04:29;2.80;1.00
11944;DHT22;6031;50.220;10.122;2023-02-25T17:07:14;2.80;1.00
11944;DHT22;6031;50.220;10.122;2023-02-25T17:09:50;2.70;1.00
11944;DHT22;6031;50.220;10.122;2023-02-25T17:15:21;2.70;1.00
11944;DHT22;6031;50.220;10.122;2023-02-25T17:17:50;2.70;1.00
11944;DHT22;6031;50.220;10.122;2023-02-25T17:20:20;2.70;1.00
11944;DHT22;6031;50.220;10.122;2023-02-25T17:22:52;2.60;1.00
11944;DHT22;6031;50.220;10.122;2023-02-25T17:25:18;2.60;1.00
11944;DHT22;6031;50.220;10.122;2023-02-25T17:27:46;2.60;1.00
11944;DHT22;6031;50.220;10.122;2023-02-25T17:30:39;2.60;1.00
11944;DHT22;6031;50.220;10.122;2023-02-25T17:33:05;2.70;1.00
11944;DHT22;6031;50.220;10.122;2023-02-25T17:35:32;2.70;1.00
11944;DHT22;6031;50.220;10.122;2023-02-25T17:37:59;2.70;1.00
11944;DHT22;6031;50.220;10.122;2023-02-25T17:40:27;2.70;1.00
11944;DHT22;6031;50.220;10.122;2023-02-25T17:43:25;2.60;1.00
11944;DHT22;6031;50.220;10.122;2023-02-25T17:45:58;2.60;1.00
11944;DHT22;6031;50.220;10.122;2023-02-25T17:48:33;2.60;53.70
11944;DHT22;6031;50.220;10.122;2023-02-25T17:51:06;2.60;99.90
11944;DHT22;6031;50.220;10.122;2023-02-25T17:53:46;2.30;99.90
11944;DHT22;6031;50.220;10.122;2023-02-25T17:56:21;2.20;1.00
11944;DHT22;6031;50.220;10.122;2023-02-25T18:04:48;1.40;99.90
11944;DHT22;6031;50.220;10.122;2023-02-25T18:09:46;1.20;99.90
11944;DHT22;6031;50.220;10.122;2023-02-25T18:14:59;1.00;1.00
11944;DHT22;6031;50.220;10.122;2023-02-25T18:19:56;1.20;99.90
11944;DHT22;6031;50.220;10.122;2023-02-25T18:22:33;1.20;1.00
11944;DHT22;6031;50.220;10.122;2023-02-25T18:25:04;1.10;1.00
11944;DHT22;6031;50.220;10.122;2023-02-25T18:27:31;1.00;1.00
11944;DHT22;6031;50.220;10.122;2023-02-25T18:30:19;0.90;13.00
11944;DHT22;6031;50.220;10.122;2023-02-25T18:36:07;0.90;47.80
11944;DHT22;6031;50.220;10.122;2023-02-25T18:38:34;0.90;1.00
11944;DHT22;6031;50.220;10.122;2023-02-25T18:41:03;0.90;1.00
11944;DHT22;6031;50.220;10.122;2023-02-25T18:43:30;0.80;1.00
11944;DHT22;6031;50.220;10.122;2023-02-25T18:45:59;0.90;1.00
11944;DHT22;6031;50.220;10.122;2023-02-25T18:48:25;1.00;1.00
11944;DHT22;6031;50.220;10.122;2023-02-25T18:50:51;1.10;1.00
11944;DHT22;6031;50.220;10.122;2023-02-25T18:53:20;1.00;1.00
11944;DHT22;6031;50.220;10.122;2023-02-25T18:55:48;0.90;1.00
11944;DHT22;6031;50.220;10.122;2023-02-25T18:58:15;1.00;1.00
11944;DHT22;6031;50.220;10.122;2023-02-25T19:00:44;1.00;1.00
11944;DHT22;6031;50.220;10.122;2023-02-25T19:03:13;1.00;1.00
11944;DHT22;6031;50.220;10.122;2023-02-25T19:05:40;1.00;1.00
11944;DHT22;6031;50.220;10.122;2023-02-25T19:08:14;0.90;1.00
11944;DHT22;6031;50.220;10.122;2023-02-25T19:10:41;0.90;1.00
11944;DHT22;6031;50.220;10.122;2023-02-25T19:16:29;0.90;1.00
11944;DHT22;6031;50.220;10.122;2023-02-25T19:18:55;0.90;1.00
11944;DHT22;6031;50.220;10.122;2023-02-25T19:21:20;0.90;1.00
11944;DHT22;6031;50.220;10.122;2023-02-25T19:23:47;1.00;1.00
11944;DHT22;6031;50.220;10.122;2023-02-25T19:26:15;0.90;1.00
11944;DHT22;6031;50.220;10.122;2023-02-25T19:28:40;0.90;1.00
11944;DHT22;6031;50.220;10.122;2023-02-25T19:31:06;0.80;1.00
11944;DHT22;6031;50.220;10.122;2023-02-25T19:33:33;0.90;99.90
11944;DHT22;6031;50.220;10.122;2023-02-25T19:36:02;0.80;1.00
11944;DHT22;6031;50.220;10.122;2023-02-25T19:38:28;0.70;16.00
11944;DHT22;6031;50.220;10.122;2023-02-25T19:40:59;0.50;99.90
11944;DHT22;6031;50.220;10.122;2023-02-25T19:43:25;0.50;99.90
11944;DHT22;6031;50.220;10.122;2023-02-25T19:45:51;0.40;1.00
11944;DHT22;6031;50.220;10.122;2023-02-25T19:48:18;0.40;99.90
11944;DHT22;6031;50.220;10.122;2023-02-25T19:50:44;0.40;1.00